createdAt,value
2023-05-06T00:02:12.177Z,100541.75
2023-05-06T00:04:39.754Z,100541.47
2023-05-06T00:07:07.005Z,100545.97
2023-05-06T00:09:33.725Z,100531.50
2023-05-06T00:12:00.487Z,100534.69
2023-05-06T00:14:27.315Z,100539.34
2023-05-06T00:16:54.387Z,100534.69
2023-05-06T00:19:21.119Z,100524.69
2023-05-06T00:21:47.922Z,100530.50
2023-05-06T00:24:14.649Z,100535.66
2023-05-06T00:26:41.370Z,100537.34
2023-05-06T00:29:08.161Z,100535.16
2023-05-06T00:31:34.994Z,100534.81
2023-05-06T00:34:01.708Z,100530.50
2023-05-06T00:36:28.434Z,100526.13
2023-05-06T00:38:55.168Z,100521.31
2023-05-06T00:41:22.038Z,100526.94
2023-05-06T00:43:48.774Z,100523.75
2023-05-06T00:46:17.358Z,100524.94
2023-05-06T00:48:44.881Z,100520.78
2023-05-06T00:51:12.851Z,100513.94
2023-05-06T00:53:40.185Z,100522.28
2023-05-06T00:56:08.056Z,100516.00
2023-05-06T00:58:35.280Z,100523.66
2023-05-06T01:01:03.255Z,100500.50
2023-05-06T01:03:30.235Z,100512.38
2023-05-06T01:06:28.208Z,100517.19
2023-05-06T01:09:01.053Z,100522.34
2023-05-06T01:11:41.300Z,100519.50
2023-05-06T01:14:19.300Z,100524.47
2023-05-06T01:16:51.020Z,100529.81
2023-05-06T01:19:39.356Z,100523.16
2023-05-06T01:22:07.487Z,100530.97
2023-05-06T01:24:42.954Z,100521.63
2023-05-06T01:27:12.193Z,100518.13
2023-05-06T01:29:41.917Z,100526.13
2023-05-06T01:32:31.792Z,100525.31
2023-05-06T01:35:17.851Z,100535.81
2023-05-06T01:37:59.355Z,100534.28
2023-05-06T01:40:28.525Z,100532.09
2023-05-06T01:42:56.705Z,100520.63
2023-05-06T01:45:28.293Z,100517.97
2023-05-06T01:47:56.951Z,100531.50
2023-05-06T01:50:23.852Z,100534.19
2023-05-06T01:53:00.959Z,100526.53
2023-05-06T01:55:28.291Z,100515.56
2023-05-06T01:57:56.711Z,100538.88
2023-05-06T02:00:25.822Z,100537.72
2023-05-06T02:02:52.720Z,100537.41
2023-05-06T02:05:19.929Z,100532.94
2023-05-06T02:07:51.332Z,100522.25
2023-05-06T02:10:19.520Z,100515.59
2023-05-06T02:12:51.235Z,100522.91
2023-05-06T02:15:18.193Z,100517.25
2023-05-06T02:17:45.156Z,100514.25
2023-05-06T02:20:12.181Z,100511.94
2023-05-06T02:22:39.951Z,100503.94
2023-05-06T02:25:07.712Z,100518.25
2023-05-06T02:27:34.558Z,100513.75
2023-05-06T02:30:01.579Z,100518.25
2023-05-06T02:32:29.682Z,100508.94
2023-05-06T02:34:56.441Z,100512.25
2023-05-06T02:37:23.335Z,100511.59
2023-05-06T02:39:50.085Z,100508.13
2023-05-06T02:42:16.843Z,100506.78
2023-05-06T02:44:45.433Z,100512.09
2023-05-06T02:47:12.220Z,100513.09
2023-05-06T02:49:39.144Z,100519.25
2023-05-06T02:52:06.044Z,100513.75
2023-05-06T02:54:32.850Z,100513.25
2023-05-06T02:56:59.702Z,100516.75
2023-05-06T02:59:26.492Z,100513.44
2023-05-06T03:01:53.281Z,100524.25
2023-05-06T03:04:20.120Z,100536.06
2023-05-06T03:06:46.965Z,100532.88
2023-05-06T03:09:15.372Z,100532.41
2023-05-06T03:11:42.139Z,100534.88
2023-05-06T03:14:08.990Z,100544.19
2023-05-06T03:16:35.877Z,100543.84
2023-05-06T03:19:03.906Z,100532.03
2023-05-06T03:21:31.999Z,100527.19
2023-05-06T03:23:59.310Z,100532.69
2023-05-06T03:26:27.898Z,100520.19
2023-05-06T03:28:54.812Z,100522.19
2023-05-06T03:31:22.552Z,100512.16
2023-05-06T03:33:49.310Z,100514.97
2023-05-06T03:36:16.431Z,100507.81
2023-05-06T03:38:45.670Z,100512.47
2023-05-06T03:41:12.961Z,100507.97
2023-05-06T03:43:40.693Z,100521.31
2023-05-06T03:46:07.863Z,100524.50
2023-05-06T03:48:36.336Z,100503.34
2023-05-06T03:51:04.985Z,100534.16
2023-05-06T03:53:31.917Z,100528.53
2023-05-06T03:55:58.696Z,100531.19
2023-05-06T03:58:25.487Z,100534.16
2023-05-06T04:00:52.403Z,100530.88
2023-05-06T04:03:19.344Z,100542.50
2023-05-06T04:05:50.905Z,100538.53
2023-05-06T04:08:21.695Z,100538.03
2023-05-06T04:10:48.726Z,100537.22
2023-05-06T04:13:22.969Z,100528.06
2023-05-06T04:15:50.406Z,100539.91
2023-05-06T04:18:21.450Z,100542.72
2023-05-06T04:21:00.302Z,100536.56
2023-05-06T04:23:29.346Z,100542.88
2023-05-06T04:25:58.035Z,100547.22
2023-05-06T04:28:25.670Z,100550.56
2023-05-06T04:30:53.486Z,100551.22
2023-05-06T04:33:25.602Z,100548.38
2023-05-06T04:35:53.980Z,100549.00
2023-05-06T04:38:25.930Z,100550.13
2023-05-06T04:40:54.105Z,100552.06
2023-05-06T04:43:21.128Z,100554.34
2023-05-06T04:45:51.631Z,100546.31
2023-05-06T04:48:24.033Z,100559.94
2023-05-06T04:50:53.749Z,100556.25
2023-05-06T04:53:20.594Z,100549.66
2023-05-06T04:55:47.326Z,100549.91
2023-05-06T04:58:14.969Z,100549.53
2023-05-06T05:00:41.947Z,100547.63
2023-05-06T05:03:09.141Z,100549.88
2023-05-06T05:05:35.932Z,100546.97
2023-05-06T05:08:05.400Z,100544.22
2023-05-06T05:10:35.475Z,100546.03
2023-05-06T05:13:02.186Z,100552.97
2023-05-06T05:15:29.465Z,100549.38
2023-05-06T05:17:56.402Z,100548.63
2023-05-06T05:20:23.644Z,100554.94
2023-05-06T05:22:50.866Z,100545.34
2023-05-06T05:25:17.854Z,100548.00
2023-05-06T05:27:46.355Z,100555.75
2023-05-06T05:30:13.376Z,100555.13
2023-05-06T05:32:41.340Z,100547.66
2023-05-06T05:35:10.713Z,100537.16
2023-05-06T05:37:39.628Z,100531.06
2023-05-06T05:40:07.574Z,100543.13
2023-05-06T05:42:36.825Z,100545.41
2023-05-06T05:45:09.474Z,100557.03
2023-05-06T05:47:36.912Z,100551.78
2023-05-06T05:50:04.469Z,100553.72
2023-05-06T05:52:31.585Z,100546.50
2023-05-06T05:54:59.018Z,100553.28
2023-05-06T05:57:26.252Z,100541.72
2023-05-06T05:59:52.938Z,100558.97
2023-05-06T06:02:20.173Z,100550.63
2023-05-06T06:04:47.051Z,100558.06
2023-05-06T06:07:13.966Z,100557.25
2023-05-06T06:09:42.924Z,100551.50
2023-05-06T06:12:10.018Z,100560.63
2023-05-06T06:14:40.118Z,100554.50
2023-05-06T06:17:07.529Z,100560.38
2023-05-06T06:19:34.607Z,100554.97
2023-05-06T06:22:02.135Z,100558.44
2023-05-06T06:24:34.782Z,100564.47
2023-05-06T06:27:01.659Z,100561.13
2023-05-06T06:29:28.591Z,100557.56
2023-05-06T06:31:58.639Z,100553.28
2023-05-06T06:34:25.583Z,100548.94
2023-05-06T06:36:52.391Z,100551.63
2023-05-06T06:39:19.183Z,100553.34
2023-05-06T06:41:45.997Z,100554.38
2023-05-06T06:44:12.694Z,100565.16
2023-05-06T06:46:39.452Z,100569.38
2023-05-06T06:49:06.120Z,100574.16
2023-05-06T06:51:32.997Z,100576.63
2023-05-06T06:53:59.710Z,100572.59
2023-05-06T06:56:26.533Z,100567.72
2023-05-06T06:58:53.576Z,100573.91
2023-05-06T07:01:20.490Z,100567.00
2023-05-06T07:03:47.319Z,100575.06
2023-05-06T07:06:14.107Z,100577.81
2023-05-06T07:08:40.996Z,100561.88
2023-05-06T07:11:07.769Z,100568.25
2023-05-06T07:13:34.585Z,100563.09
2023-05-06T07:16:01.406Z,100561.47
2023-05-06T07:18:28.476Z,100563.81
2023-05-06T07:20:55.302Z,100564.88
2023-05-06T07:23:22.123Z,100559.94
2023-05-06T07:25:48.980Z,100556.50
2023-05-06T07:28:15.874Z,100562.09
2023-05-06T07:30:42.973Z,100544.97
2023-05-06T07:33:09.627Z,100559.72
2023-05-06T07:35:37.154Z,100560.13
2023-05-06T07:38:04.007Z,100554.78
2023-05-06T07:40:30.794Z,100557.72
2023-05-06T07:42:57.599Z,100553.00
2023-05-06T07:45:25.228Z,100553.41
2023-05-06T07:47:52.223Z,100551.09
2023-05-06T07:50:19.039Z,100564.38
2023-05-06T07:52:45.848Z,100561.47
2023-05-06T07:55:13.041Z,100553.78
2023-05-06T07:57:39.984Z,100568.28
2023-05-06T08:00:07.298Z,100569.31
2023-05-06T08:02:46.814Z,100574.22
2023-05-06T08:05:14.391Z,100572.19
2023-05-06T08:07:42.210Z,100574.03
2023-05-06T08:10:10.115Z,100573.38
2023-05-06T08:12:36.999Z,100578.56
2023-05-06T08:15:04.144Z,100568.03
2023-05-06T08:17:30.918Z,100573.63
2023-05-06T08:19:57.773Z,100572.41
2023-05-06T08:22:24.527Z,100576.31
2023-05-06T08:24:51.402Z,100575.16
2023-05-06T08:27:18.148Z,100581.97
2023-05-06T08:29:44.913Z,100578.88
2023-05-06T08:32:11.773Z,100584.22
2023-05-06T08:34:38.668Z,100583.22
2023-05-06T08:37:05.978Z,100580.97
2023-05-06T08:39:32.707Z,100583.25
2023-05-06T08:42:04.864Z,100573.94
2023-05-06T08:44:32.030Z,100569.59
2023-05-06T08:46:59.661Z,100579.34
2023-05-06T08:49:26.517Z,100576.66
2023-05-06T08:51:53.258Z,100569.84
2023-05-06T08:54:20.303Z,100555.56
2023-05-06T08:56:53.176Z,100563.22
2023-05-06T08:59:33.838Z,100567.97
2023-05-06T09:02:02.275Z,100559.69
2023-05-06T09:04:29.736Z,100564.03
2023-05-06T09:06:58.530Z,100561.13
2023-05-06T09:09:25.673Z,100557.41
2023-05-06T09:11:57.592Z,100553.28
2023-05-06T09:14:24.694Z,100556.94
2023-05-06T09:16:55.162Z,100555.28
2023-05-06T09:19:23.526Z,100554.81
2023-05-06T09:21:52.075Z,100558.94
2023-05-06T09:24:19.281Z,100558.34
2023-05-06T09:26:46.819Z,100555.66
2023-05-06T09:29:14.052Z,100554.00
2023-05-06T09:31:48.253Z,100554.81
2023-05-06T09:34:15.939Z,100551.09
2023-05-06T09:36:42.615Z,100557.28
2023-05-06T09:39:10.204Z,100543.03
2023-05-06T09:41:37.085Z,100560.63
2023-05-06T09:44:04.098Z,100556.31
2023-05-06T09:46:30.871Z,100548.25
2023-05-06T09:48:58.685Z,100538.28
2023-05-06T09:51:27.984Z,100538.72
2023-05-06T09:53:56.686Z,100544.50
2023-05-06T09:56:23.924Z,100543.22
2023-05-06T09:58:52.561Z,100541.13
2023-05-06T10:01:32.595Z,100536.75
2023-05-06T10:04:01.634Z,100536.13
2023-05-06T10:06:28.783Z,100530.09
2023-05-06T10:08:56.969Z,100520.16
2023-05-06T10:11:25.228Z,100525.06
2023-05-06T10:13:53.007Z,100520.53
2023-05-06T10:16:20.372Z,100520.69
2023-05-06T10:18:49.851Z,100514.47
2023-05-06T10:21:24.971Z,100518.75
2023-05-06T10:23:57.332Z,100500.31
2023-05-06T10:26:27.521Z,100506.44
2023-05-06T10:28:54.945Z,100504.72
2023-05-06T10:31:21.850Z,100504.09
2023-05-06T10:33:51.125Z,100505.53
2023-05-06T10:36:21.644Z,100496.34
2023-05-06T10:39:00.819Z,100483.88
2023-05-06T10:41:28.574Z,100486.94
2023-05-06T10:43:57.065Z,100482.06
2023-05-06T10:46:26.461Z,100484.31
2023-05-06T10:49:06.207Z,100485.69
2023-05-06T10:51:34.649Z,100476.94
2023-05-06T10:54:02.773Z,100483.22
2023-05-06T10:56:31.475Z,100486.53
2023-05-06T10:59:02.337Z,100463.72
2023-05-06T11:01:29.321Z,100470.34
2023-05-06T11:03:56.364Z,100467.47
2023-05-06T11:06:34.325Z,100462.53
2023-05-06T11:09:01.913Z,100467.72
2023-05-06T11:11:51.090Z,100451.56
2023-05-06T11:14:29.506Z,100465.84
2023-05-06T11:16:58.616Z,100466.69
2023-05-06T11:19:30.341Z,100465.84
2023-05-06T11:21:58.755Z,100464.84
2023-05-06T11:24:30.599Z,100452.94
2023-05-06T11:26:59.498Z,100466.72
2023-05-06T11:29:27.119Z,100468.31
2023-05-06T11:31:54.231Z,100463.56
2023-05-06T11:34:23.576Z,100463.72
2023-05-06T11:37:02.674Z,100466.47
2023-05-06T11:39:39.907Z,100462.78
2023-05-06T11:42:09.159Z,100467.13
2023-05-06T11:44:38.081Z,100469.03
2023-05-06T11:47:07.993Z,100469.50
2023-05-06T11:49:43.572Z,100474.56
2023-05-06T11:52:11.931Z,100475.56
2023-05-06T11:54:40.689Z,100468.06
2023-05-06T11:57:08.214Z,100477.59
2023-05-06T11:59:39.569Z,100460.78
2023-05-06T12:02:09.570Z,100467.41
2023-05-06T12:04:45.648Z,100467.63
2023-05-06T12:07:14.706Z,100464.84
2023-05-06T12:09:47.571Z,100460.63
2023-05-06T12:12:20.072Z,100469.09
2023-05-06T12:14:47.891Z,100470.22
2023-05-06T12:17:15.493Z,100469.53
2023-05-06T12:19:42.336Z,100463.69
2023-05-06T12:22:18.000Z,100457.16
2023-05-06T12:24:46.578Z,100451.53
2023-05-06T12:27:13.531Z,100459.31
2023-05-06T12:29:40.431Z,100458.03
2023-05-06T12:32:11.972Z,100450.25
2023-05-06T12:34:41.818Z,100444.50
2023-05-06T12:37:08.840Z,100449.03
2023-05-06T12:39:39.586Z,100438.78
2023-05-06T12:42:06.753Z,100434.16
2023-05-06T12:44:38.849Z,100436.97
2023-05-06T12:47:09.673Z,100442.13
2023-05-06T12:49:51.269Z,100419.56
2023-05-06T12:52:20.088Z,100417.22
2023-05-06T12:54:48.813Z,100419.19
2023-05-06T12:57:16.588Z,100416.13
2023-05-06T12:59:45.726Z,100414.50
2023-05-06T13:02:13.292Z,100415.69
2023-05-06T13:04:40.868Z,100416.50
2023-05-06T13:07:07.997Z,100415.19
2023-05-06T13:09:34.711Z,100397.91
2023-05-06T13:12:02.478Z,100393.91
2023-05-06T13:14:29.250Z,100405.09
2023-05-06T13:16:56.273Z,100409.47
2023-05-06T13:19:32.526Z,100404.53
2023-05-06T13:22:01.036Z,100406.63
2023-05-06T13:24:28.500Z,100391.94
2023-05-06T13:26:57.108Z,100401.59
2023-05-06T13:29:24.587Z,100382.63
2023-05-06T13:31:51.769Z,100379.56
2023-05-06T13:34:18.864Z,100384.97
2023-05-06T13:36:47.788Z,100384.53
2023-05-06T13:39:14.778Z,100370.78
2023-05-06T13:41:42.473Z,100369.13
2023-05-06T13:44:10.414Z,100358.69
2023-05-06T13:46:37.140Z,100364.53
2023-05-06T13:49:04.125Z,100357.00
2023-05-06T13:51:33.476Z,100356.88
2023-05-06T13:54:01.040Z,100351.13
2023-05-06T13:56:27.793Z,100351.81
2023-05-06T13:58:54.555Z,100348.75
2023-05-06T14:01:22.176Z,100347.94
2023-05-06T14:03:49.274Z,100342.44
2023-05-06T14:06:16.414Z,100341.00
2023-05-06T14:08:43.173Z,100338.31
2023-05-06T14:11:12.738Z,100337.25
2023-05-06T14:13:40.178Z,100329.25
2023-05-06T14:16:07.288Z,100330.53
2023-05-06T14:18:34.158Z,100329.13
2023-05-06T14:21:00.990Z,100326.19
2023-05-06T14:23:27.707Z,100325.63
2023-05-06T14:25:54.422Z,100321.31
2023-05-06T14:28:21.148Z,100332.44
2023-05-06T14:30:48.032Z,100332.44
2023-05-06T14:33:14.820Z,100331.63
2023-05-06T14:35:42.445Z,100332.91
2023-05-06T14:38:10.834Z,100334.81
2023-05-06T14:40:38.917Z,100339.97
2023-05-06T14:43:07.361Z,100339.13
2023-05-06T14:45:34.360Z,100339.38
2023-05-06T14:48:01.412Z,100329.50
2023-05-06T14:50:28.218Z,100335.59
2023-05-06T14:52:54.907Z,100341.19
2023-05-06T14:55:21.701Z,100341.91
2023-05-06T14:57:48.692Z,100340.13
2023-05-06T15:00:16.979Z,100345.63
2023-05-06T15:02:43.743Z,100348.03
2023-05-06T15:05:12.083Z,100335.47
2023-05-06T15:07:39.292Z,100345.88
2023-05-06T15:10:06.302Z,100345.63
2023-05-06T15:12:33.656Z,100338.97
2023-05-06T15:15:00.683Z,100349.06
2023-05-06T15:17:27.449Z,100352.47
2023-05-06T15:19:54.343Z,100350.81
2023-05-06T15:22:21.189Z,100353.72
2023-05-06T15:24:47.908Z,100355.56
2023-05-06T15:27:15.220Z,100361.75
2023-05-06T15:29:42.006Z,100361.09
2023-05-06T15:32:09.076Z,100364.34
2023-05-06T15:34:35.911Z,100366.38
2023-05-06T15:37:02.655Z,100374.84
2023-05-06T15:39:29.417Z,100371.47
2023-05-06T15:41:58.248Z,100367.63
2023-05-06T15:46:53.370Z,100373.91
2023-05-06T15:49:47.374Z,100372.13
2023-05-06T15:52:06.793Z,100380.03
2023-05-06T15:54:37.034Z,100374.28
2023-05-06T15:57:07.472Z,100376.63
2023-05-06T15:59:34.400Z,100383.50
2023-05-06T16:02:26.111Z,100387.06
2023-05-06T16:04:48.098Z,100380.44
2023-05-06T16:07:15.654Z,100382.69
2023-05-06T16:09:43.583Z,100380.94
2023-05-06T16:12:10.424Z,100383.69
2023-05-06T16:14:37.152Z,100388.47
2023-05-06T16:17:03.975Z,100393.69
2023-05-06T16:19:32.143Z,100383.56
2023-05-06T16:21:58.949Z,100379.88
2023-05-06T16:24:25.817Z,100383.19
2023-05-06T16:26:52.554Z,100379.88
2023-05-06T16:29:20.761Z,100384.88
2023-05-06T16:31:48.527Z,100376.16
2023-05-06T16:34:15.414Z,100382.78
2023-05-06T16:36:42.122Z,100389.06
2023-05-06T16:39:08.900Z,100384.34
2023-05-06T16:41:35.629Z,100388.28
2023-05-06T16:44:02.339Z,100388.72
2023-05-06T16:46:29.124Z,100391.66
2023-05-06T16:48:56.090Z,100401.00
2023-05-06T16:51:22.926Z,100403.69
2023-05-06T16:53:49.656Z,100401.34
2023-05-06T16:56:17.595Z,100376.28
2023-05-06T16:58:44.365Z,100396.72
2023-05-06T17:01:11.837Z,100399.31
2023-05-06T17:03:39.220Z,100392.09
2023-05-06T17:06:06.022Z,100396.66
2023-05-06T17:08:36.328Z,100394.81
2023-05-06T17:11:06.619Z,100385.69
2023-05-06T17:13:34.022Z,100380.13
2023-05-06T17:16:00.978Z,100369.59
2023-05-06T17:18:27.686Z,100368.97
2023-05-06T17:20:56.396Z,100363.00
2023-05-06T17:23:23.686Z,100353.06
2023-05-06T17:25:51.273Z,100349.13
2023-05-06T17:28:18.869Z,100345.00
2023-05-06T17:30:46.157Z,100355.38
2023-05-06T17:33:13.025Z,100347.94
2023-05-06T17:35:40.117Z,100347.13
2023-05-06T17:38:06.966Z,100337.41
2023-05-06T17:40:33.819Z,100338.91
2023-05-06T17:43:00.863Z,100350.28
2023-05-06T17:45:28.519Z,100333.13
2023-05-06T17:47:56.572Z,100346.81
2023-05-06T17:50:23.675Z,100358.44
2023-05-06T17:52:52.397Z,100358.84
2023-05-06T17:55:21.529Z,100369.63
2023-05-06T17:57:48.777Z,100380.97
2023-05-06T18:00:16.935Z,100380.38
2023-05-06T18:02:44.384Z,100375.66
2023-05-06T18:05:12.030Z,100381.22
2023-05-06T18:07:39.274Z,100379.75
2023-05-06T18:10:07.356Z,100377.09
2023-05-06T18:12:34.187Z,100380.59
2023-05-06T18:15:01.392Z,100382.25
2023-05-06T18:17:28.229Z,100380.81
2023-05-06T18:19:55.025Z,100391.78
2023-05-06T18:22:21.705Z,100406.06
2023-05-06T18:24:48.502Z,100411.22
2023-05-06T18:27:15.205Z,100421.13
2023-05-06T18:29:42.331Z,100427.75
2023-05-06T18:32:09.140Z,100415.34
2023-05-06T18:34:35.916Z,100426.09
2023-05-06T18:37:02.703Z,100424.22
2023-05-06T18:39:29.397Z,100432.47
2023-05-06T18:41:56.076Z,100427.72
2023-05-06T18:44:22.790Z,100434.13
2023-05-06T18:46:49.539Z,100433.72
2023-05-06T18:49:16.488Z,100448.94
2023-05-06T18:51:43.264Z,100451.00
2023-05-06T18:54:10.055Z,100457.59
2023-05-06T18:56:37.447Z,100455.75
2023-05-06T18:59:04.307Z,100459.00
2023-05-06T19:01:31.074Z,100454.25
2023-05-06T19:03:58.011Z,100454.22
2023-05-06T19:06:25.020Z,100460.03
2023-05-06T19:08:51.821Z,100470.78
2023-05-06T19:11:19.118Z,100466.81
2023-05-06T19:13:46.475Z,100453.38
2023-05-06T19:16:13.900Z,100455.84
2023-05-06T19:18:40.911Z,100466.38
2023-05-06T19:21:11.895Z,100468.66
2023-05-06T19:23:38.723Z,100463.25
2023-05-06T19:26:06.782Z,100471.56
2023-05-06T19:28:34.369Z,100474.84
2023-05-06T19:31:01.454Z,100479.41
2023-05-06T19:33:28.575Z,100477.53
2023-05-06T19:35:55.365Z,100468.22
2023-05-06T19:38:22.159Z,100483.13
2023-05-06T19:40:48.966Z,100481.09
2023-05-06T19:43:15.712Z,100482.38
2023-05-06T19:45:42.630Z,100485.28
2023-05-06T19:48:09.318Z,100484.88
2023-05-06T19:50:36.739Z,100485.09
2023-05-06T19:53:03.647Z,100483.00
2023-05-06T19:55:30.987Z,100485.69
2023-05-06T19:57:57.949Z,100496.84
2023-05-06T20:00:27.306Z,100490.47
2023-05-06T20:02:56.741Z,100489.81
2023-05-06T20:05:24.029Z,100496.41
2023-05-06T20:07:51.276Z,100496.00
2023-05-06T20:10:17.983Z,100505.91
2023-05-06T20:12:44.742Z,100492.66
2023-05-06T20:15:12.019Z,100510.91
2023-05-06T20:17:39.244Z,100509.44
2023-05-06T20:20:11.576Z,100509.63
2023-05-06T20:22:40.021Z,100503.44
2023-05-06T20:25:12.369Z,100495.16
2023-05-06T20:27:39.399Z,100510.91
2023-05-06T20:30:08.074Z,100513.56
2023-05-06T20:32:38.442Z,100517.91
2023-05-06T20:35:06.332Z,100514.38
2023-05-06T20:37:36.744Z,100517.91
2023-05-06T20:40:05.030Z,100517.06
2023-05-06T20:42:32.094Z,100524.94
2023-05-06T20:44:59.281Z,100519.78
2023-05-06T20:47:26.585Z,100519.56
2023-05-06T20:49:53.685Z,100521.63
2023-05-06T20:52:21.690Z,100528.88
2023-05-06T20:54:48.903Z,100524.94
2023-05-06T20:57:17.903Z,100523.06
2023-05-06T20:59:44.852Z,100519.97
2023-05-06T21:02:11.791Z,100530.47
2023-05-06T21:04:38.710Z,100536.47
2023-05-06T21:07:05.386Z,100524.69
2023-05-06T21:09:32.120Z,100538.94
2023-05-06T21:11:59.229Z,100544.25
2023-05-06T21:14:27.397Z,100544.69
2023-05-06T21:16:54.147Z,100536.41
2023-05-06T21:19:21.056Z,100525.63
2023-05-06T21:21:48.363Z,100528.28
2023-05-06T21:24:15.235Z,100527.47
2023-05-06T21:26:42.233Z,100531.34
2023-05-06T21:29:09.012Z,100525.38
2023-05-06T21:31:35.830Z,100510.66
2023-05-06T21:34:04.197Z,100532.97
2023-05-06T21:36:31.300Z,100530.09
2023-05-06T21:39:12.921Z,100534.66
2023-05-06T21:41:40.608Z,100531.91
2023-05-06T21:44:09.147Z,100522.59
2023-05-06T21:46:37.800Z,100531.47
2023-05-06T21:49:05.093Z,100527.56
2023-05-06T21:51:34.538Z,100531.66
2023-05-06T21:54:01.529Z,100534.13
2023-05-06T21:56:28.926Z,100530.00
2023-05-06T21:58:56.205Z,100528.31
2023-05-06T22:01:26.158Z,100532.22
2023-05-06T22:03:53.956Z,100523.97
2023-05-06T22:06:21.345Z,100527.25
2023-05-06T22:08:48.079Z,100521.22
2023-05-06T22:11:15.112Z,100529.50
2023-05-06T22:13:42.096Z,100514.44
2023-05-06T22:16:09.953Z,100517.13
2023-05-06T22:18:41.648Z,100521.66
2023-05-06T22:21:09.812Z,100520.84
2023-05-06T22:23:36.776Z,100508.03
2023-05-06T22:26:03.617Z,100512.97
2023-05-06T22:28:30.383Z,100515.47
2023-05-06T22:30:57.291Z,100505.75
2023-05-06T22:33:24.088Z,100518.34
2023-05-06T22:35:51.045Z,100500.34
2023-05-06T22:38:17.781Z,100517.50
2023-05-06T22:40:44.523Z,100509.66
2023-05-06T22:43:11.285Z,100509.22
2023-05-06T22:45:38.334Z,100508.97
2023-05-06T22:48:05.506Z,100512.47
2023-05-06T22:50:32.303Z,100505.03
2023-05-06T22:53:01.303Z,100499.25
2023-05-06T22:55:31.887Z,100501.28
2023-05-06T22:57:58.692Z,100493.63
2023-05-06T23:00:25.383Z,100487.63
2023-05-06T23:02:52.657Z,100488.84
2023-05-06T23:05:19.575Z,100480.97
2023-05-06T23:07:46.370Z,100487.56
2023-05-06T23:10:13.082Z,100492.09
2023-05-06T23:12:40.254Z,100485.25
2023-05-06T23:15:07.855Z,100481.13
2023-05-06T23:17:34.722Z,100483.38
2023-05-06T23:20:01.531Z,100486.63
2023-05-06T23:22:28.367Z,100474.66
2023-05-06T23:24:55.869Z,100491.94
2023-05-06T23:27:22.657Z,100481.16
2023-05-06T23:29:49.489Z,100489.38
2023-05-06T23:32:16.704Z,100484.22
2023-05-06T23:34:43.510Z,100477.78
2023-05-06T23:37:11.849Z,100480.66
2023-05-06T23:39:38.605Z,100476.50
2023-05-06T23:42:05.382Z,100464.44
2023-05-06T23:44:32.131Z,100464.00
2023-05-06T23:46:58.947Z,100476.38
2023-05-06T23:49:25.773Z,100464.56
2023-05-06T23:51:52.469Z,100474.47
2023-05-06T23:54:19.253Z,100476.88
2023-05-06T23:56:46.038Z,100466.94
2023-05-06T23:59:12.812Z,100466.28
